sensor_id;sensor_type;location;lat;lon;timestamp;P1;durP1;ratioP1;P2;durP2;ratioP2
34060;SDS011;20336;-33.424;-70.638;2022-09-09T00:06:31;13.37;;;8.20;;
34060;SDS011;20336;-33.424;-70.638;2022-09-09T00:09:19;14.97;;;8.87;;
34060;SDS011;20336;-33.424;-70.638;2022-09-09T00:23:13;13.07;;;8.80;;
34060;SDS011;20336;-33.424;-70.638;2022-09-09T00:28:24;14.10;;;8.63;;
34060;SDS011;20336;-33.424;-70.638;2022-09-09T00:30:54;11.43;;;8.93;;
34060;SDS011;20336;-33.424;-70.638;2022-09-09T00:33:23;14.73;;;9.53;;
34060;SDS011;20336;-33.424;-70.638;2022-09-09T00:35:54;15.17;;;9.10;;
34060;SDS011;20336;-33.424;-70.638;2022-09-09T00:38:37;15.87;;;10.17;;
34060;SDS011;20336;-33.424;-70.638;2022-09-09T00:44:17;14.07;;;9.60;;
34060;SDS011;20336;-33.424;-70.638;2022-09-09T00:47:00;14.47;;;10.10;;
34060;SDS011;20336;-33.424;-70.638;2022-09-09T00:57:47;13.53;;;9.90;;
34060;SDS011;20336;-33.424;-70.638;2022-09-09T01:00:19;16.90;;;10.63;;
34060;SDS011;20336;-33.424;-70.638;2022-09-09T01:08:02;12.90;;;9.10;;
34060;SDS011;20336;-33.424;-70.638;2022-09-09T01:13:29;15.57;;;10.47;;
34060;SDS011;20336;-33.424;-70.638;2022-09-09T01:16:04;14.33;;;10.30;;
34060;SDS011;20336;-33.424;-70.638;2022-09-09T01:18:40;13.13;;;9.87;;
34060;SDS011;20336;-33.424;-70.638;2022-09-09T01:26:51;19.13;;;13.10;;
34060;SDS011;20336;-33.424;-70.638;2022-09-09T01:29:22;15.27;;;10.63;;
34060;SDS011;20336;-33.424;-70.638;2022-09-09T01:34:20;16.97;;;11.40;;
34060;SDS011;20336;-33.424;-70.638;2022-09-09T01:36:50;15.63;;;10.70;;
34060;SDS011;20336;-33.424;-70.638;2022-09-09T01:39:20;15.50;;;10.13;;
34060;SDS011;20336;-33.424;-70.638;2022-09-09T01:41:47;13.97;;;11.10;;
34060;SDS011;20336;-33.424;-70.638;2022-09-09T01:44:14;16.90;;;12.17;;
34060;SDS011;20336;-33.424;-70.638;2022-09-09T01:46:41;14.93;;;11.03;;
34060;SDS011;20336;-33.424;-70.638;2022-09-09T01:49:07;21.53;;;12.23;;
34060;SDS011;20336;-33.424;-70.638;2022-09-09T01:51:36;16.20;;;11.40;;
34060;SDS011;20336;-33.424;-70.638;2022-09-09T01:54:03;14.53;;;10.87;;
34060;SDS011;20336;-33.424;-70.638;2022-09-09T01:56:35;17.17;;;11.10;;
34060;SDS011;20336;-33.424;-70.638;2022-09-09T02:08:00;17.67;;;11.80;;
34060;SDS011;20336;-33.424;-70.638;2022-09-09T02:10:37;16.03;;;11.07;;
34060;SDS011;20336;-33.424;-70.638;2022-09-09T02:13:27;17.57;;;11.90;;
34060;SDS011;20336;-33.424;-70.638;2022-09-09T02:18:32;21.33;;;12.90;;
34060;SDS011;20336;-33.424;-70.638;2022-09-09T02:21:05;19.63;;;14.13;;
34060;SDS011;20336;-33.424;-70.638;2022-09-09T02:23:33;17.23;;;13.70;;
34060;SDS011;20336;-33.424;-70.638;2022-09-09T02:26:01;19.73;;;14.37;;
34060;SDS011;20336;-33.424;-70.638;2022-09-09T02:28:30;21.23;;;15.60;;
34060;SDS011;20336;-33.424;-70.638;2022-09-09T02:31:00;22.10;;;16.07;;
34060;SDS011;20336;-33.424;-70.638;2022-09-09T02:33:29;18.27;;;14.23;;
34060;SDS011;20336;-33.424;-70.638;2022-09-09T02:36:01;20.63;;;15.20;;
34060;SDS011;20336;-33.424;-70.638;2022-09-09T02:38:29;21.87;;;14.43;;
34060;SDS011;20336;-33.424;-70.638;2022-09-09T02:41:00;19.30;;;14.30;;
34060;SDS011;20336;-33.424;-70.638;2022-09-09T02:43:31;18.60;;;14.53;;
34060;SDS011;20336;-33.424;-70.638;2022-09-09T02:48:47;20.03;;;14.00;;
34060;SDS011;20336;-33.424;-70.638;2022-09-09T02:51:32;19.53;;;14.87;;
34060;SDS011;20336;-33.424;-70.638;2022-09-09T02:54:15;20.43;;;15.30;;
34060;SDS011;20336;-33.424;-70.638;2022-09-09T02:56:48;19.80;;;13.80;;
34060;SDS011;20336;-33.424;-70.638;2022-09-09T02:59:22;19.20;;;13.47;;
34060;SDS011;20336;-33.424;-70.638;2022-09-09T03:01:52;22.50;;;13.93;;
34060;SDS011;20336;-33.424;-70.638;2022-09-09T03:04:18;16.33;;;12.23;;
34060;SDS011;20336;-33.424;-70.638;2022-09-09T03:06:46;17.00;;;11.97;;
34060;SDS011;20336;-33.424;-70.638;2022-09-09T03:09:12;18.33;;;11.83;;
34060;SDS011;20336;-33.424;-70.638;2022-09-09T03:11:39;16.73;;;12.17;;
34060;SDS011;20336;-33.424;-70.638;2022-09-09T03:14:06;16.17;;;12.33;;
34060;SDS011;20336;-33.424;-70.638;2022-09-09T03:16:36;19.27;;;12.67;;
34060;SDS011;20336;-33.424;-70.638;2022-09-09T03:19:07;16.47;;;12.80;;
34060;SDS011;20336;-33.424;-70.638;2022-09-09T03:21:34;18.60;;;12.60;;
34060;SDS011;20336;-33.424;-70.638;2022-09-09T03:24:01;17.83;;;12.03;;
34060;SDS011;20336;-33.424;-70.638;2022-09-09T03:26:29;18.13;;;11.03;;
34060;SDS011;20336;-33.424;-70.638;2022-09-09T03:28:57;18.80;;;11.97;;
34060;SDS011;20336;-33.424;-70.638;2022-09-09T03:31:25;18.67;;;12.57;;
34060;SDS011;20336;-33.424;-70.638;2022-09-09T03:33:56;20.00;;;12.77;;
34060;SDS011;20336;-33.424;-70.638;2022-09-09T03:36:27;23.17;;;12.97;;
34060;SDS011;20336;-33.424;-70.638;2022-09-09T03:38:54;17.93;;;11.83;;
34060;SDS011;20336;-33.424;-70.638;2022-09-09T03:41:22;16.40;;;11.57;;
34060;SDS011;20336;-33.424;-70.638;2022-09-09T03:43:50;17.27;;;11.23;;
34060;SDS011;20336;-33.424;-70.638;2022-09-09T03:46:17;24.83;;;11.90;;
34060;SDS011;20336;-33.424;-70.638;2022-09-09T03:48:49;18.80;;;11.57;;
34060;SDS011;20336;-33.424;-70.638;2022-09-09T03:51:17;17.53;;;11.30;;
34060;SDS011;20336;-33.424;-70.638;2022-09-09T03:53:44;13.13;;;9.93;;
34060;SDS011;20336;-33.424;-70.638;2022-09-09T03:56:11;16.30;;;9.83;;
34060;SDS011;20336;-33.424;-70.638;2022-09-09T03:58:38;13.53;;;9.47;;
34060;SDS011;20336;-33.424;-70.638;2022-09-09T04:01:08;13.30;;;9.50;;
34060;SDS011;20336;-33.424;-70.638;2022-09-09T04:03:38;15.63;;;10.13;;
34060;SDS011;20336;-33.424;-70.638;2022-09-09T04:06:06;15.50;;;10.47;;
34060;SDS011;20336;-33.424;-70.638;2022-09-09T04:08:34;17.90;;;11.13;;
34060;SDS011;20336;-33.424;-70.638;2022-09-09T04:11:02;15.73;;;11.53;;
34060;SDS011;20336;-33.424;-70.638;2022-09-09T04:13:32;16.50;;;11.77;;
34060;SDS011;20336;-33.424;-70.638;2022-09-09T04:16:00;12.47;;;9.80;;
34060;SDS011;20336;-33.424;-70.638;2022-09-09T04:18:28;20.70;;;13.57;;
34060;SDS011;20336;-33.424;-70.638;2022-09-09T04:20:56;14.67;;;11.10;;
34060;SDS011;20336;-33.424;-70.638;2022-09-09T04:23:26;15.80;;;10.63;;
34060;SDS011;20336;-33.424;-70.638;2022-09-09T04:25:58;15.97;;;9.50;;
34060;SDS011;20336;-33.424;-70.638;2022-09-09T04:28:27;15.73;;;10.53;;
34060;SDS011;20336;-33.424;-70.638;2022-09-09T04:30:55;14.03;;;10.50;;
34060;SDS011;20336;-33.424;-70.638;2022-09-09T04:33:23;17.47;;;11.30;;
34060;SDS011;20336;-33.424;-70.638;2022-09-09T04:35:53;19.13;;;12.43;;
34060;SDS011;20336;-33.424;-70.638;2022-09-09T04:38:20;14.37;;;10.07;;
34060;SDS011;20336;-33.424;-70.638;2022-09-09T04:40:49;15.13;;;10.00;;
34060;SDS011;20336;-33.424;-70.638;2022-09-09T04:43:17;17.23;;;10.90;;
34060;SDS011;20336;-33.424;-70.638;2022-09-09T04:45:49;15.53;;;10.43;;
34060;SDS011;20336;-33.424;-70.638;2022-09-09T04:48:17;16.47;;;10.10;;
34060;SDS011;20336;-33.424;-70.638;2022-09-09T04:50:44;14.23;;;10.17;;
34060;SDS011;20336;-33.424;-70.638;2022-09-09T04:53:34;15.50;;;10.13;;
34060;SDS011;20336;-33.424;-70.638;2022-09-09T04:56:05;15.37;;;9.90;;
34060;SDS011;20336;-33.424;-70.638;2022-09-09T04:58:35;16.47;;;10.63;;
34060;SDS011;20336;-33.424;-70.638;2022-09-09T05:01:04;17.73;;;12.23;;
34060;SDS011;20336;-33.424;-70.638;2022-09-09T05:03:32;19.43;;;11.83;;
34060;SDS011;20336;-33.424;-70.638;2022-09-09T05:06:17;20.73;;;13.10;;
34060;SDS011;20336;-33.424;-70.638;2022-09-09T05:08:46;22.63;;;13.17;;
34060;SDS011;20336;-33.424;-70.638;2022-09-09T05:11:15;21.33;;;13.57;;
34060;SDS011;20336;-33.424;-70.638;2022-09-09T05:13:44;18.80;;;13.60;;
34060;SDS011;20336;-33.424;-70.638;2022-09-09T05:16:11;22.73;;;14.07;;
34060;SDS011;20336;-33.424;-70.638;2022-09-09T05:18:39;19.13;;;12.53;;
34060;SDS011;20336;-33.424;-70.638;2022-09-09T05:21:08;22.47;;;12.93;;
34060;SDS011;20336;-33.424;-70.638;2022-09-09T05:23:39;27.40;;;14.00;;
34060;SDS011;20336;-33.424;-70.638;2022-09-09T05:26:06;18.83;;;13.33;;
34060;SDS011;20336;-33.424;-70.638;2022-09-09T05:28:35;22.00;;;11.93;;
34060;SDS011;20336;-33.424;-70.638;2022-09-09T05:31:04;21.27;;;12.73;;
34060;SDS011;20336;-33.424;-70.638;2022-09-09T05:33:38;22.27;;;13.33;;
34060;SDS011;20336;-33.424;-70.638;2022-09-09T05:36:14;19.13;;;12.00;;
34060;SDS011;20336;-33.424;-70.638;2022-09-09T05:38:43;18.17;;;12.80;;
34060;SDS011;20336;-33.424;-70.638;2022-09-09T05:41:11;24.83;;;13.23;;
34060;SDS011;20336;-33.424;-70.638;2022-09-09T05:43:41;21.47;;;13.77;;
34060;SDS011;20336;-33.424;-70.638;2022-09-09T05:46:10;18.03;;;12.03;;
34060;SDS011;20336;-33.424;-70.638;2022-09-09T05:48:39;21.53;;;13.57;;
34060;SDS011;20336;-33.424;-70.638;2022-09-09T05:51:08;18.93;;;10.63;;
34060;SDS011;20336;-33.424;-70.638;2022-09-09T05:53:41;16.80;;;10.60;;
34060;SDS011;20336;-33.424;-70.638;2022-09-09T05:56:13;16.47;;;11.30;;
34060;SDS011;20336;-33.424;-70.638;2022-09-09T05:58:40;16.70;;;10.17;;
34060;SDS011;20336;-33.424;-70.638;2022-09-09T06:01:13;20.00;;;10.43;;
34060;SDS011;20336;-33.424;-70.638;2022-09-09T06:03:42;17.53;;;10.07;;
34060;SDS011;20336;-33.424;-70.638;2022-09-09T06:06:11;18.23;;;10.70;;
34060;SDS011;20336;-33.424;-70.638;2022-09-09T06:08:40;17.80;;;10.10;;
34060;SDS011;20336;-33.424;-70.638;2022-09-09T06:11:21;17.87;;;11.23;;
34060;SDS011;20336;-33.424;-70.638;2022-09-09T06:13:50;13.03;;;10.13;;
34060;SDS011;20336;-33.424;-70.638;2022-09-09T06:16:19;15.87;;;11.53;;
34060;SDS011;20336;-33.424;-70.638;2022-09-09T06:18:51;15.47;;;11.40;;
34060;SDS011;20336;-33.424;-70.638;2022-09-09T06:21:22;18.10;;;11.87;;
34060;SDS011;20336;-33.424;-70.638;2022-09-09T06:23:50;19.67;;;11.50;;
34060;SDS011;20336;-33.424;-70.638;2022-09-09T06:26:19;18.73;;;11.17;;
34060;SDS011;20336;-33.424;-70.638;2022-09-09T06:28:48;21.63;;;13.20;;
34060;SDS011;20336;-33.424;-70.638;2022-09-09T06:31:18;24.47;;;14.07;;
34060;SDS011;20336;-33.424;-70.638;2022-09-09T06:33:50;18.27;;;11.43;;
34060;SDS011;20336;-33.424;-70.638;2022-09-09T06:36:22;18.40;;;11.80;;
34060;SDS011;20336;-33.424;-70.638;2022-09-09T06:38:50;19.37;;;12.00;;
34060;SDS011;20336;-33.424;-70.638;2022-09-09T06:41:18;21.00;;;11.80;;
34060;SDS011;20336;-33.424;-70.638;2022-09-09T06:43:46;15.17;;;9.90;;
34060;SDS011;20336;-33.424;-70.638;2022-09-09T06:46:17;15.03;;;10.10;;
34060;SDS011;20336;-33.424;-70.638;2022-09-09T06:48:47;16.93;;;10.30;;
34060;SDS011;20336;-33.424;-70.638;2022-09-09T06:51:15;20.30;;;10.63;;
34060;SDS011;20336;-33.424;-70.638;2022-09-09T06:53:46;15.27;;;10.90;;
34060;SDS011;20336;-33.424;-70.638;2022-09-09T06:56:23;16.87;;;9.57;;
34060;SDS011;20336;-33.424;-70.638;2022-09-09T06:59:11;12.50;;;9.57;;
34060;SDS011;20336;-33.424;-70.638;2022-09-09T07:01:38;13.40;;;8.50;;
34060;SDS011;20336;-33.424;-70.638;2022-09-09T07:04:06;12.90;;;8.70;;
34060;SDS011;20336;-33.424;-70.638;2022-09-09T07:06:35;14.73;;;9.07;;
34060;SDS011;20336;-33.424;-70.638;2022-09-09T07:09:04;14.03;;;9.20;;
34060;SDS011;20336;-33.424;-70.638;2022-09-09T07:11:36;13.03;;;9.03;;
34060;SDS011;20336;-33.424;-70.638;2022-09-09T07:14:04;12.73;;;8.40;;
34060;SDS011;20336;-33.424;-70.638;2022-09-09T07:16:32;13.83;;;9.07;;
34060;SDS011;20336;-33.424;-70.638;2022-09-09T07:19:02;14.00;;;9.00;;
34060;SDS011;20336;-33.424;-70.638;2022-09-09T07:21:30;13.53;;;9.60;;
34060;SDS011;20336;-33.424;-70.638;2022-09-09T07:23:58;14.23;;;9.53;;
34060;SDS011;20336;-33.424;-70.638;2022-09-09T07:26:26;19.20;;;11.70;;
34060;SDS011;20336;-33.424;-70.638;2022-09-09T07:28:54;17.23;;;11.87;;
34060;SDS011;20336;-33.424;-70.638;2022-09-09T07:31:26;18.10;;;12.80;;
34060;SDS011;20336;-33.424;-70.638;2022-09-09T07:33:56;20.20;;;12.93;;
34060;SDS011;20336;-33.424;-70.638;2022-09-09T07:36:24;20.77;;;13.00;;
34060;SDS011;20336;-33.424;-70.638;2022-09-09T07:38:52;23.40;;;14.83;;
34060;SDS011;20336;-33.424;-70.638;2022-09-09T07:41:24;31.57;;;16.63;;
34060;SDS011;20336;-33.424;-70.638;2022-09-09T07:43:51;26.67;;;16.77;;
34060;SDS011;20336;-33.424;-70.638;2022-09-09T07:46:19;26.43;;;17.23;;
34060;SDS011;20336;-33.424;-70.638;2022-09-09T07:48:47;30.73;;;18.20;;
34060;SDS011;20336;-33.424;-70.638;2022-09-09T07:51:36;28.37;;;18.40;;
34060;SDS011;20336;-33.424;-70.638;2022-09-09T07:54:08;26.20;;;18.03;;
34060;SDS011;20336;-33.424;-70.638;2022-09-09T07:56:35;34.57;;;19.53;;
34060;SDS011;20336;-33.424;-70.638;2022-09-09T07:59:02;27.73;;;17.90;;
34060;SDS011;20336;-33.424;-70.638;2022-09-09T08:01:33;28.97;;;18.03;;
34060;SDS011;20336;-33.424;-70.638;2022-09-09T08:04:10;30.10;;;17.40;;
34060;SDS011;20336;-33.424;-70.638;2022-09-09T08:06:43;30.80;;;18.73;;
34060;SDS011;20336;-33.424;-70.638;2022-09-09T08:09:11;32.47;;;19.60;;
34060;SDS011;20336;-33.424;-70.638;2022-09-09T08:11:39;32.27;;;19.03;;
34060;SDS011;20336;-33.424;-70.638;2022-09-09T08:14:06;37.57;;;21.53;;
34060;SDS011;20336;-33.424;-70.638;2022-09-09T08:16:35;44.03;;;24.10;;
34060;SDS011;20336;-33.424;-70.638;2022-09-09T08:19:02;37.43;;;20.57;;
34060;SDS011;20336;-33.424;-70.638;2022-09-09T08:21:30;30.33;;;20.17;;
34060;SDS011;20336;-33.424;-70.638;2022-09-09T08:23:59;31.77;;;20.10;;
34060;SDS011;20336;-33.424;-70.638;2022-09-09T08:26:27;29.93;;;18.57;;
34060;SDS011;20336;-33.424;-70.638;2022-09-09T08:28:55;31.03;;;19.60;;
34060;SDS011;20336;-33.424;-70.638;2022-09-09T08:31:22;32.03;;;17.33;;
34060;SDS011;20336;-33.424;-70.638;2022-09-09T08:33:50;25.80;;;16.37;;
34060;SDS011;20336;-33.424;-70.638;2022-09-09T08:36:17;29.83;;;19.13;;
34060;SDS011;20336;-33.424;-70.638;2022-09-09T08:38:51;33.33;;;19.43;;
34060;SDS011;20336;-33.424;-70.638;2022-09-09T08:44:06;37.40;;;21.57;;
34060;SDS011;20336;-33.424;-70.638;2022-09-09T08:49:15;28.60;;;17.70;;
34060;SDS011;20336;-33.424;-70.638;2022-09-09T08:51:45;29.70;;;18.53;;
34060;SDS011;20336;-33.424;-70.638;2022-09-09T08:54:15;29.13;;;18.90;;
34060;SDS011;20336;-33.424;-70.638;2022-09-09T08:56:42;41.07;;;23.57;;
34060;SDS011;20336;-33.424;-70.638;2022-09-09T08:59:10;30.07;;;18.07;;
34060;SDS011;20336;-33.424;-70.638;2022-09-09T09:01:41;29.17;;;18.50;;
34060;SDS011;20336;-33.424;-70.638;2022-09-09T09:09:39;30.97;;;18.73;;
34060;SDS011;20336;-33.424;-70.638;2022-09-09T09:12:15;54.87;;;28.67;;
34060;SDS011;20336;-33.424;-70.638;2022-09-09T09:14:42;42.10;;;24.50;;
34060;SDS011;20336;-33.424;-70.638;2022-09-09T09:17:11;36.17;;;22.83;;
34060;SDS011;20336;-33.424;-70.638;2022-09-09T09:19:40;36.33;;;21.83;;
34060;SDS011;20336;-33.424;-70.638;2022-09-09T09:22:21;38.60;;;22.57;;
34060;SDS011;20336;-33.424;-70.638;2022-09-09T09:27:50;30.23;;;20.17;;
34060;SDS011;20336;-33.424;-70.638;2022-09-09T09:30:21;29.33;;;18.90;;
34060;SDS011;20336;-33.424;-70.638;2022-09-09T09:32:52;29.97;;;18.77;;
34060;SDS011;20336;-33.424;-70.638;2022-09-09T09:35:19;27.70;;;18.20;;
34060;SDS011;20336;-33.424;-70.638;2022-09-09T09:37:46;27.00;;;17.90;;
34060;SDS011;20336;-33.424;-70.638;2022-09-09T09:40:15;27.30;;;18.00;;
34060;SDS011;20336;-33.424;-70.638;2022-09-09T09:42:49;43.73;;;23.77;;
34060;SDS011;20336;-33.424;-70.638;2022-09-09T09:45:25;31.13;;;18.77;;
34060;SDS011;20336;-33.424;-70.638;2022-09-09T09:48:04;29.80;;;19.00;;
34060;SDS011;20336;-33.424;-70.638;2022-09-09T09:50:31;28.37;;;18.03;;
34060;SDS011;20336;-33.424;-70.638;2022-09-09T09:53:01;36.33;;;21.37;;
34060;SDS011;20336;-33.424;-70.638;2022-09-09T09:55:30;47.70;;;25.40;;
34060;SDS011;20336;-33.424;-70.638;2022-09-09T09:58:04;49.83;;;26.70;;
34060;SDS011;20336;-33.424;-70.638;2022-09-09T10:00:32;41.30;;;24.30;;
34060;SDS011;20336;-33.424;-70.638;2022-09-09T10:03:01;31.60;;;19.43;;
34060;SDS011;20336;-33.424;-70.638;2022-09-09T10:05:39;30.77;;;19.27;;
34060;SDS011;20336;-33.424;-70.638;2022-09-09T10:08:12;28.97;;;18.50;;
34060;SDS011;20336;-33.424;-70.638;2022-09-09T10:10:57;44.53;;;22.57;;
34060;SDS011;20336;-33.424;-70.638;2022-09-09T10:13:29;28.40;;;18.03;;
34060;SDS011;20336;-33.424;-70.638;2022-09-09T10:16:40;45.40;;;24.80;;
34060;SDS011;20336;-33.424;-70.638;2022-09-09T10:18:55;32.77;;;19.97;;
34060;SDS011;20336;-33.424;-70.638;2022-09-09T10:24:11;35.87;;;22.60;;
34060;SDS011;20336;-33.424;-70.638;2022-09-09T10:40:01;45.83;;;25.87;;
34060;SDS011;20336;-33.424;-70.638;2022-09-09T10:42:30;65.07;;;32.33;;
34060;SDS011;20336;-33.424;-70.638;2022-09-09T10:55:26;67.83;;;34.23;;
34060;SDS011;20336;-33.424;-70.638;2022-09-09T10:57:53;54.00;;;29.80;;
34060;SDS011;20336;-33.424;-70.638;2022-09-09T11:00:23;52.43;;;28.23;;
34060;SDS011;20336;-33.424;-70.638;2022-09-09T11:02:58;58.63;;;31.37;;
34060;SDS011;20336;-33.424;-70.638;2022-09-09T11:07:58;64.00;;;33.50;;
34060;SDS011;20336;-33.424;-70.638;2022-09-09T11:13:36;57.43;;;31.47;;
34060;SDS011;20336;-33.424;-70.638;2022-09-09T11:16:16;48.90;;;28.43;;
34060;SDS011;20336;-33.424;-70.638;2022-09-09T11:18:46;53.43;;;29.00;;
34060;SDS011;20336;-33.424;-70.638;2022-09-09T11:21:18;59.30;;;30.70;;
34060;SDS011;20336;-33.424;-70.638;2022-09-09T11:23:52;55.83;;;30.17;;
34060;SDS011;20336;-33.424;-70.638;2022-09-09T11:29:35;51.40;;;29.20;;
34060;SDS011;20336;-33.424;-70.638;2022-09-09T11:34:39;63.23;;;32.30;;
34060;SDS011;20336;-33.424;-70.638;2022-09-09T11:44:38;50.63;;;28.00;;
34060;SDS011;20336;-33.424;-70.638;2022-09-09T11:47:15;54.47;;;28.77;;
34060;SDS011;20336;-33.424;-70.638;2022-09-09T11:49:42;49.30;;;27.67;;
34060;SDS011;20336;-33.424;-70.638;2022-09-09T11:52:12;45.77;;;26.07;;
34060;SDS011;20336;-33.424;-70.638;2022-09-09T11:54:49;46.10;;;27.10;;
34060;SDS011;20336;-33.424;-70.638;2022-09-09T11:57:23;43.80;;;26.17;;
34060;SDS011;20336;-33.424;-70.638;2022-09-09T11:59:51;49.47;;;28.70;;
34060;SDS011;20336;-33.424;-70.638;2022-09-09T12:02:21;50.77;;;28.03;;
34060;SDS011;20336;-33.424;-70.638;2022-09-09T12:04:54;54.13;;;30.20;;
34060;SDS011;20336;-33.424;-70.638;2022-09-09T12:07:31;50.30;;;27.53;;
34060;SDS011;20336;-33.424;-70.638;2022-09-09T12:12:33;47.63;;;27.37;;
34060;SDS011;20336;-33.424;-70.638;2022-09-09T12:15:02;56.13;;;29.80;;
34060;SDS011;20336;-33.424;-70.638;2022-09-09T12:17:30;56.33;;;30.07;;
34060;SDS011;20336;-33.424;-70.638;2022-09-09T12:20:08;49.90;;;29.30;;
34060;SDS011;20336;-33.424;-70.638;2022-09-09T12:26:05;52.10;;;28.37;;
34060;SDS011;20336;-33.424;-70.638;2022-09-09T12:30:46;63.27;;;32.33;;
34060;SDS011;20336;-33.424;-70.638;2022-09-09T12:33:19;72.17;;;35.07;;
34060;SDS011;20336;-33.424;-70.638;2022-09-09T12:35:52;52.33;;;29.63;;
34060;SDS011;20336;-33.424;-70.638;2022-09-09T12:38:31;51.33;;;29.67;;
34060;SDS011;20336;-33.424;-70.638;2022-09-09T12:40:59;51.00;;;29.97;;
34060;SDS011;20336;-33.424;-70.638;2022-09-09T12:43:26;50.90;;;29.07;;
34060;SDS011;20336;-33.424;-70.638;2022-09-09T12:45:55;49.47;;;28.77;;
34060;SDS011;20336;-33.424;-70.638;2022-09-09T12:48:31;49.93;;;29.33;;
34060;SDS011;20336;-33.424;-70.638;2022-09-09T12:50:59;70.60;;;34.80;;
34060;SDS011;20336;-33.424;-70.638;2022-09-09T12:55:58;57.27;;;32.03;;
34060;SDS011;20336;-33.424;-70.638;2022-09-09T12:58:26;58.33;;;31.07;;
34060;SDS011;20336;-33.424;-70.638;2022-09-09T13:00:58;49.73;;;28.80;;
34060;SDS011;20336;-33.424;-70.638;2022-09-09T13:03:25;55.30;;;30.97;;
34060;SDS011;20336;-33.424;-70.638;2022-09-09T13:05:52;49.67;;;29.00;;
34060;SDS011;20336;-33.424;-70.638;2022-09-09T13:08:20;52.87;;;28.40;;
34060;SDS011;20336;-33.424;-70.638;2022-09-09T13:10:50;49.17;;;28.63;;
34060;SDS011;20336;-33.424;-70.638;2022-09-09T13:13:34;48.23;;;28.57;;
34060;SDS011;20336;-33.424;-70.638;2022-09-09T13:16:02;54.00;;;29.40;;
34060;SDS011;20336;-33.424;-70.638;2022-09-09T13:18:32;56.43;;;30.50;;
34060;SDS011;20336;-33.424;-70.638;2022-09-09T13:21:00;57.77;;;32.43;;
34060;SDS011;20336;-33.424;-70.638;2022-09-09T13:23:28;53.37;;;31.23;;
34060;SDS011;20336;-33.424;-70.638;2022-09-09T13:25:57;55.10;;;31.83;;
34060;SDS011;20336;-33.424;-70.638;2022-09-09T13:28:25;56.57;;;31.87;;
34060;SDS011;20336;-33.424;-70.638;2022-09-09T13:30:59;60.40;;;33.27;;
34060;SDS011;20336;-33.424;-70.638;2022-09-09T13:33:34;58.27;;;35.13;;
34060;SDS011;20336;-33.424;-70.638;2022-09-09T13:36:06;53.93;;;32.60;;
34060;SDS011;20336;-33.424;-70.638;2022-09-09T13:38:38;54.20;;;32.97;;
34060;SDS011;20336;-33.424;-70.638;2022-09-09T13:41:08;54.40;;;31.97;;
34060;SDS011;20336;-33.424;-70.638;2022-09-09T13:43:38;53.47;;;31.87;;
34060;SDS011;20336;-33.424;-70.638;2022-09-09T13:46:24;46.50;;;29.33;;
34060;SDS011;20336;-33.424;-70.638;2022-09-09T13:48:56;46.90;;;29.90;;
34060;SDS011;20336;-33.424;-70.638;2022-09-09T13:51:34;46.87;;;29.03;;
34060;SDS011;20336;-33.424;-70.638;2022-09-09T13:54:05;44.37;;;26.70;;
34060;SDS011;20336;-33.424;-70.638;2022-09-09T13:56:33;41.47;;;26.70;;
34060;SDS011;20336;-33.424;-70.638;2022-09-09T13:59:00;43.87;;;26.43;;
34060;SDS011;20336;-33.424;-70.638;2022-09-09T14:01:27;43.67;;;27.47;;
34060;SDS011;20336;-33.424;-70.638;2022-09-09T14:03:55;46.60;;;27.03;;
34060;SDS011;20336;-33.424;-70.638;2022-09-09T14:06:22;45.43;;;28.90;;
34060;SDS011;20336;-33.424;-70.638;2022-09-09T14:08:50;42.03;;;27.13;;
34060;SDS011;20336;-33.424;-70.638;2022-09-09T14:11:17;39.20;;;25.13;;
34060;SDS011;20336;-33.424;-70.638;2022-09-09T14:13:44;40.67;;;26.33;;
34060;SDS011;20336;-33.424;-70.638;2022-09-09T14:16:12;37.60;;;24.50;;
34060;SDS011;20336;-33.424;-70.638;2022-09-09T14:18:39;37.40;;;23.80;;
34060;SDS011;20336;-33.424;-70.638;2022-09-09T14:21:06;44.17;;;26.27;;
34060;SDS011;20336;-33.424;-70.638;2022-09-09T14:23:34;41.80;;;24.37;;
34060;SDS011;20336;-33.424;-70.638;2022-09-09T14:26:01;41.17;;;24.73;;
34060;SDS011;20336;-33.424;-70.638;2022-09-09T14:28:28;38.67;;;24.00;;
34060;SDS011;20336;-33.424;-70.638;2022-09-09T14:30:55;37.47;;;23.87;;
34060;SDS011;20336;-33.424;-70.638;2022-09-09T14:33:21;34.77;;;23.07;;
34060;SDS011;20336;-33.424;-70.638;2022-09-09T14:35:54;34.13;;;21.73;;
34060;SDS011;20336;-33.424;-70.638;2022-09-09T14:38:21;37.20;;;22.60;;
34060;SDS011;20336;-33.424;-70.638;2022-09-09T14:40:48;34.70;;;22.67;;
34060;SDS011;20336;-33.424;-70.638;2022-09-09T14:43:15;36.33;;;22.97;;
34060;SDS011;20336;-33.424;-70.638;2022-09-09T14:45:42;36.63;;;22.13;;
34060;SDS011;20336;-33.424;-70.638;2022-09-09T14:48:09;33.50;;;22.37;;
34060;SDS011;20336;-33.424;-70.638;2022-09-09T14:50:36;37.60;;;23.03;;
34060;SDS011;20336;-33.424;-70.638;2022-09-09T14:53:05;36.53;;;23.90;;
34060;SDS011;20336;-33.424;-70.638;2022-09-09T14:55:32;34.53;;;23.40;;
34060;SDS011;20336;-33.424;-70.638;2022-09-09T14:57:59;34.80;;;20.80;;
34060;SDS011;20336;-33.424;-70.638;2022-09-09T15:00:26;35.10;;;21.73;;
34060;SDS011;20336;-33.424;-70.638;2022-09-09T15:02:53;31.50;;;21.20;;
34060;SDS011;20336;-33.424;-70.638;2022-09-09T15:05:20;35.27;;;22.23;;
34060;SDS011;20336;-33.424;-70.638;2022-09-09T15:07:47;31.67;;;21.67;;
34060;SDS011;20336;-33.424;-70.638;2022-09-09T15:10:14;31.13;;;20.07;;
34060;SDS011;20336;-33.424;-70.638;2022-09-09T15:12:42;40.07;;;21.87;;
34060;SDS011;20336;-33.424;-70.638;2022-09-09T15:15:12;34.00;;;20.20;;
34060;SDS011;20336;-33.424;-70.638;2022-09-09T15:17:39;35.23;;;20.97;;
34060;SDS011;20336;-33.424;-70.638;2022-09-09T15:20:06;29.50;;;20.10;;
34060;SDS011;20336;-33.424;-70.638;2022-09-09T15:22:33;32.67;;;20.20;;
34060;SDS011;20336;-33.424;-70.638;2022-09-09T15:25:02;33.47;;;21.57;;
34060;SDS011;20336;-33.424;-70.638;2022-09-09T15:27:28;33.67;;;20.47;;
34060;SDS011;20336;-33.424;-70.638;2022-09-09T15:29:56;29.97;;;20.13;;
34060;SDS011;20336;-33.424;-70.638;2022-09-09T15:32:23;30.93;;;20.33;;
34060;SDS011;20336;-33.424;-70.638;2022-09-09T15:34:50;33.23;;;20.67;;
34060;SDS011;20336;-33.424;-70.638;2022-09-09T15:37:18;31.57;;;19.47;;
34060;SDS011;20336;-33.424;-70.638;2022-09-09T15:39:45;30.17;;;18.67;;
34060;SDS011;20336;-33.424;-70.638;2022-09-09T15:42:13;28.40;;;18.20;;
34060;SDS011;20336;-33.424;-70.638;2022-09-09T15:44:40;29.30;;;18.77;;
34060;SDS011;20336;-33.424;-70.638;2022-09-09T15:47:09;32.75;;;19.73;;
34060;SDS011;20336;-33.424;-70.638;2022-09-09T15:49:37;29.17;;;20.50;;
34060;SDS011;20336;-33.424;-70.638;2022-09-09T15:52:05;31.00;;;19.05;;
34060;SDS011;20336;-33.424;-70.638;2022-09-09T15:54:34;34.25;;;20.20;;
34060;SDS011;20336;-33.424;-70.638;2022-09-09T15:57:02;31.15;;;19.73;;
34060;SDS011;20336;-33.424;-70.638;2022-09-09T15:59:29;33.55;;;19.58;;
34060;SDS011;20336;-33.424;-70.638;2022-09-09T16:01:57;29.73;;;19.77;;
34060;SDS011;20336;-33.424;-70.638;2022-09-09T16:04:25;32.00;;;19.38;;
34060;SDS011;20336;-33.424;-70.638;2022-09-09T16:06:55;36.38;;;20.95;;
34060;SDS011;20336;-33.424;-70.638;2022-09-09T16:09:24;28.80;;;19.40;;
34060;SDS011;20336;-33.424;-70.638;2022-09-09T16:11:52;32.33;;;17.95;;
34060;SDS011;20336;-33.424;-70.638;2022-09-09T16:14:19;25.77;;;16.98;;